createdAt,value
2022-09-01T00:00:13.816Z,1.30
2022-09-01T00:02:43.129Z,0.98
2022-09-01T00:05:12.985Z,1.58
2022-09-01T00:07:39.820Z,1.00
2022-09-01T00:10:08.413Z,1.42
2022-09-01T00:12:37.016Z,1.25
2022-09-01T00:15:05.699Z,1.50
2022-09-01T00:17:35.182Z,1.10
2022-09-01T00:20:02.372Z,1.52
2022-09-01T00:22:33.717Z,1.30
2022-09-01T00:25:02.710Z,1.33
2022-09-01T00:27:35.324Z,1.75
2022-09-01T00:30:05.756Z,1.70
2022-09-01T00:32:34.970Z,1.48
2022-09-01T00:37:31.256Z,1.50
2022-09-01T00:39:58.020Z,2.08
2022-09-01T00:42:25.034Z,1.73
2022-09-01T00:44:57.408Z,2.20
2022-09-01T00:47:24.344Z,1.48
2022-09-01T00:49:54.571Z,1.65
2022-09-01T00:52:26.963Z,1.95
2022-09-01T00:54:56.493Z,2.30
2022-09-01T00:57:23.294Z,1.70
2022-09-01T00:59:55.814Z,2.88
2022-09-01T01:02:25.862Z,1.35
2022-09-01T01:04:52.922Z,2.30
2022-09-01T01:07:22.664Z,2.03
2022-09-01T01:09:50.552Z,1.88
2022-09-01T01:12:20.461Z,1.98
2022-09-01T01:14:50.994Z,1.83
2022-09-01T01:17:23.831Z,1.90
2022-09-01T01:20:13.543Z,1.70
2022-09-01T01:23:05.798Z,1.88
2022-09-01T01:25:38.526Z,1.00
2022-09-01T01:28:10.225Z,1.58
2022-09-01T01:30:41.896Z,0.98
2022-09-01T01:33:11.974Z,1.52
2022-09-01T01:35:40.089Z,1.48
2022-09-01T01:38:08.187Z,1.20
2022-09-01T01:43:05.761Z,1.03
2022-09-01T01:45:33.070Z,1.40
2022-09-01T01:48:08.688Z,1.50
2022-09-01T01:50:39.198Z,1.95
2022-09-01T01:53:14.013Z,1.98
2022-09-01T01:55:43.885Z,1.90
2022-09-01T01:58:16.660Z,1.27
2022-09-01T02:00:44.586Z,1.38
2022-09-01T02:03:12.879Z,1.33
2022-09-01T02:05:42.092Z,1.40
2022-09-01T02:10:45.316Z,1.20
2022-09-01T02:13:17.231Z,1.17
2022-09-01T02:15:54.685Z,1.40
2022-09-01T02:18:30.099Z,1.30
2022-09-01T02:21:01.355Z,1.60
2022-09-01T02:23:31.808Z,0.98
2022-09-01T02:26:16.157Z,1.00
2022-09-01T02:28:55.372Z,1.17
2022-09-01T02:31:28.605Z,0.93
2022-09-01T02:34:02.118Z,1.27
2022-09-01T02:36:51.272Z,1.00
2022-09-01T02:39:28.009Z,1.48
2022-09-01T02:41:55.932Z,0.82
2022-09-01T02:44:39.494Z,0.80
2022-09-01T02:47:13.146Z,0.82
2022-09-01T02:49:42.644Z,1.10
2022-09-01T02:52:10.353Z,0.82
2022-09-01T02:54:39.450Z,1.00
2022-09-01T02:57:11.860Z,0.68
2022-09-01T02:59:43.218Z,1.35
2022-09-01T03:02:10.831Z,0.50
2022-09-01T03:04:42.646Z,0.60
2022-09-01T03:07:13.962Z,0.60
2022-09-01T03:12:12.111Z,0.82
2022-09-01T03:14:49.339Z,0.77
2022-09-01T03:17:18.598Z,0.43
2022-09-01T03:19:55.182Z,1.15
2022-09-01T03:22:40.070Z,0.63
2022-09-01T03:25:10.395Z,0.60
2022-09-01T03:31:09.108Z,0.73
2022-09-01T03:33:49.154Z,0.60
2022-09-01T03:36:27.743Z,0.60
2022-09-01T03:42:12.111Z,0.52
2022-09-01T03:44:42.902Z,0.50
2022-09-01T03:47:15.415Z,0.60
2022-09-01T03:49:45.681Z,0.40
2022-09-01T03:52:14.813Z,0.60
2022-09-01T03:58:06.571Z,1.10
2022-09-01T04:00:42.530Z,0.77
2022-09-01T04:03:31.994Z,1.13
2022-09-01T04:06:30.635Z,0.90
2022-09-01T04:11:53.875Z,0.60
2022-09-01T04:14:27.781Z,0.70
2022-09-01T04:17:16.185Z,0.55
2022-09-01T04:19:45.897Z,0.63
2022-09-01T04:22:14.587Z,0.70
2022-09-01T04:24:48.964Z,1.00
2022-09-01T04:27:23.157Z,0.68
2022-09-01T04:30:02.774Z,0.77
2022-09-01T04:32:41.226Z,0.80
2022-09-01T04:35:17.031Z,1.00
2022-09-01T04:37:46.228Z,0.75
2022-09-01T04:40:16.353Z,1.20
2022-09-01T04:42:45.937Z,0.98
2022-09-01T04:45:14.641Z,0.77
2022-09-01T04:47:47.838Z,1.13
2022-09-01T04:50:27.702Z,1.00
2022-09-01T04:53:18.547Z,0.90
2022-09-01T04:55:49.965Z,0.55
2022-09-01T04:58:19.508Z,0.90
2022-09-01T05:00:56.006Z,0.65
2022-09-01T05:03:24.549Z,1.27
2022-09-01T05:06:19.377Z,1.00
2022-09-01T05:08:53.629Z,0.95
2022-09-01T05:11:45.744Z,1.20
2022-09-01T05:14:21.626Z,0.70
2022-09-01T05:16:54.086Z,0.68
2022-09-01T05:19:21.648Z,0.90
2022-09-01T05:21:49.807Z,0.65
2022-09-01T05:24:21.834Z,1.02
2022-09-01T05:26:51.233Z,0.93
2022-09-01T05:34:26.746Z,0.90
2022-09-01T05:37:00.242Z,1.10
2022-09-01T05:39:30.791Z,0.98
2022-09-01T05:42:01.703Z,1.00
2022-09-01T05:44:28.682Z,1.23
2022-09-01T05:46:59.351Z,1.83
2022-09-01T05:49:33.165Z,1.10
2022-09-01T05:52:03.439Z,1.30
2022-09-01T05:54:32.651Z,1.17
2022-09-01T05:57:23.420Z,1.30
2022-09-01T05:59:55.001Z,1.08
2022-09-01T06:02:28.948Z,1.10
2022-09-01T06:04:57.627Z,1.17
2022-09-01T06:07:30.319Z,1.20
2022-09-01T06:12:32.066Z,1.20
2022-09-01T06:14:59.098Z,1.30
2022-09-01T06:17:27.194Z,0.90
2022-09-01T06:19:58.042Z,1.75
2022-09-01T06:22:31.668Z,1.10
2022-09-01T06:25:02.348Z,1.52
2022-09-01T06:27:34.280Z,1.35
2022-09-01T06:30:04.910Z,1.20
2022-09-01T06:32:39.305Z,1.23
2022-09-01T06:35:09.455Z,0.80
2022-09-01T06:37:39.638Z,0.98
2022-09-01T06:40:18.182Z,0.90
2022-09-01T06:42:49.591Z,1.63
2022-09-01T06:45:20.460Z,0.77
2022-09-01T06:47:48.675Z,0.98
2022-09-01T06:56:07.102Z,1.10
2022-09-01T06:58:36.961Z,2.55
2022-09-01T07:01:15.508Z,0.82
2022-09-01T07:03:51.308Z,0.63
2022-09-01T07:06:59.342Z,1.88
2022-09-01T07:10:05.699Z,0.90
2022-09-01T07:13:05.058Z,1.05
2022-09-01T07:18:27.116Z,1.20
2022-09-01T07:24:10.942Z,0.75
2022-09-01T07:26:47.191Z,0.70
2022-09-01T07:29:24.741Z,0.85
2022-09-01T07:34:47.594Z,1.13
2022-09-01T07:39:57.487Z,0.73
2022-09-01T07:42:59.010Z,0.60
2022-09-01T07:43:27.263Z,0.50
2022-09-01T07:46:39.546Z,0.75
2022-09-01T07:51:59.730Z,1.27
2022-09-01T07:54:30.274Z,0.50
2022-09-01T07:56:59.755Z,0.70
2022-09-01T07:59:27.964Z,0.60
2022-09-01T08:02:05.886Z,0.40
2022-09-01T08:04:39.957Z,0.57
2022-09-01T08:07:15.362Z,0.57
2022-09-01T08:09:44.114Z,0.90
2022-09-01T08:12:14.073Z,0.70
2022-09-01T08:17:56.758Z,0.50
2022-09-01T08:20:28.405Z,0.60
2022-09-01T08:22:59.336Z,0.52
2022-09-01T08:25:41.316Z,0.80
2022-09-01T08:28:08.670Z,0.70
2022-09-01T08:30:39.687Z,0.57
2022-09-01T08:33:13.216Z,0.40
2022-09-01T08:35:48.420Z,1.40
2022-09-01T08:38:21.915Z,0.88
2022-09-01T08:40:57.632Z,0.60
2022-09-01T08:44:08.147Z,0.75
2022-09-01T08:46:39.438Z,0.73
2022-09-01T08:49:28.167Z,0.60
2022-09-01T08:52:31.785Z,0.80
2022-09-01T08:55:27.351Z,0.65
2022-09-01T08:57:59.734Z,0.40
2022-09-01T09:00:30.318Z,1.02
2022-09-01T09:06:02.161Z,0.60
2022-09-01T09:08:58.081Z,0.40
2022-09-01T09:11:24.770Z,0.70
2022-09-01T09:14:28.750Z,0.50
2022-09-01T09:16:59.485Z,0.40
2022-09-01T09:19:32.575Z,0.50
2022-09-01T09:22:13.673Z,0.60
2022-09-01T09:25:02.606Z,0.55
2022-09-01T09:30:09.622Z,0.60
2022-09-01T09:33:16.103Z,0.73
2022-09-01T09:35:38.624Z,0.80
2022-09-01T09:38:18.983Z,1.10
2022-09-01T09:41:20.569Z,0.55
2022-09-01T09:43:58.978Z,0.80
2022-09-01T09:46:32.054Z,0.40
2022-09-01T09:49:10.284Z,0.60
2022-09-01T09:51:39.387Z,0.70
2022-09-01T09:56:46.552Z,0.68
2022-09-01T09:59:34.206Z,1.05
2022-09-01T10:02:28.430Z,0.38
2022-09-01T10:04:56.124Z,0.60
2022-09-01T10:07:35.409Z,0.50
2022-09-01T10:10:06.880Z,0.63
2022-09-01T10:12:37.200Z,0.90
2022-09-01T10:15:12.590Z,0.40
2022-09-01T10:17:45.029Z,0.55
2022-09-01T10:20:21.285Z,0.50
2022-09-01T10:22:49.661Z,0.43
2022-09-01T10:25:29.196Z,0.30
2022-09-01T10:28:02.570Z,0.40
2022-09-01T10:30:30.569Z,0.55
2022-09-01T10:33:11.033Z,0.73
2022-09-01T10:35:47.318Z,0.47
2022-09-01T10:38:17.220Z,0.70
2022-09-01T10:41:07.719Z,0.40
2022-09-01T10:43:45.116Z,0.40
2022-09-01T10:46:38.601Z,0.20
2022-09-01T10:49:46.511Z,0.40
2022-09-01T10:52:43.329Z,0.43
2022-09-01T10:55:25.127Z,0.30
2022-09-01T11:01:11.797Z,0.52
2022-09-01T11:03:51.679Z,0.63
2022-09-01T11:09:44.727Z,0.70
2022-09-01T11:12:29.491Z,0.20
2022-09-01T11:15:07.588Z,0.20
2022-09-01T11:17:41.577Z,0.30
2022-09-01T11:20:41.359Z,0.35
2022-09-01T11:23:22.466Z,0.20
2022-09-01T11:28:46.133Z,0.30
2022-09-01T11:31:21.991Z,0.30
2022-09-01T11:34:13.305Z,0.20
2022-09-01T11:36:49.903Z,0.28
2022-09-01T11:39:30.201Z,0.20
2022-09-01T11:42:36.164Z,0.30
2022-09-01T11:45:20.614Z,0.30
2022-09-01T11:47:55.532Z,0.30
2022-09-01T11:50:32.378Z,0.22
2022-09-01T11:53:21.964Z,0.20
2022-09-01T11:55:54.832Z,0.30
2022-09-01T11:58:33.124Z,0.20
2022-09-01T12:01:22.668Z,0.30
2022-09-01T12:03:53.158Z,0.30
2022-09-01T12:06:25.503Z,0.20
2022-09-01T12:08:58.188Z,0.20
2022-09-01T12:11:33.441Z,0.30
2022-09-01T12:14:02.313Z,0.40
2022-09-01T12:16:34.933Z,0.30
2022-09-01T12:19:02.401Z,0.30
2022-09-01T12:21:33.378Z,0.30
2022-09-01T12:24:18.168Z,0.30
2022-09-01T12:26:46.184Z,0.20
2022-09-01T12:29:28.887Z,0.30
2022-09-01T12:32:01.813Z,0.20
2022-09-01T12:34:44.843Z,0.20
2022-09-01T12:37:14.865Z,0.32
2022-09-01T12:39:44.810Z,0.22
2022-09-01T12:42:20.227Z,0.30
2022-09-01T12:44:53.766Z,0.25
2022-09-01T12:47:48.025Z,0.22
2022-09-01T12:50:16.420Z,0.20
2022-09-01T12:52:52.337Z,0.20
2022-09-01T12:58:12.179Z,0.30
2022-09-01T13:01:16.534Z,0.20
2022-09-01T13:04:09.659Z,0.20
2022-09-01T13:06:41.882Z,0.15
2022-09-01T13:09:10.129Z,0.30
2022-09-01T13:14:25.638Z,0.25
2022-09-01T13:16:55.495Z,0.28
2022-09-01T13:19:28.799Z,0.20
2022-09-01T13:21:59.831Z,0.30
2022-09-01T13:24:31.316Z,0.20
2022-09-01T13:29:46.611Z,0.35
2022-09-01T13:32:19.023Z,0.30
2022-09-01T13:34:51.807Z,0.30
2022-09-01T13:37:21.273Z,0.20
2022-09-01T13:39:51.372Z,0.20
2022-09-01T13:42:21.105Z,0.20
2022-09-01T13:44:51.135Z,0.20
2022-09-01T13:47:31.838Z,0.30
2022-09-01T13:50:19.907Z,0.20
2022-09-01T13:55:30.915Z,0.30
2022-09-01T13:57:59.236Z,0.30
2022-09-01T14:02:56.586Z,0.20
2022-09-01T14:05:31.863Z,0.20
2022-09-01T14:08:01.519Z,0.20
2022-09-01T14:10:32.515Z,0.20
2022-09-01T14:12:59.775Z,0.17
2022-09-01T14:15:29.218Z,0.20
2022-09-01T14:17:57.346Z,0.20
2022-09-01T14:20:27.351Z,0.30
2022-09-01T14:22:55.713Z,0.20
2022-09-01T14:25:23.355Z,0.22
2022-09-01T14:27:53.540Z,0.30
2022-09-01T14:30:31.016Z,0.20
2022-09-01T14:33:01.301Z,0.20
2022-09-01T14:35:33.165Z,0.20
2022-09-01T14:38:05.243Z,0.30
2022-09-01T14:40:32.342Z,0.40
2022-09-01T14:42:59.724Z,0.25
2022-09-01T14:45:28.888Z,0.20
2022-09-01T14:47:59.079Z,0.10
2022-09-01T14:50:32.039Z,0.40
2022-09-01T14:53:02.221Z,0.20
2022-09-01T14:55:32.844Z,0.20
2022-09-01T14:58:00.927Z,0.20
2022-09-01T15:00:31.560Z,0.20
2022-09-01T15:03:00.921Z,0.20
2022-09-01T15:05:27.858Z,0.22
2022-09-01T15:07:54.652Z,0.30
2022-09-01T15:10:25.120Z,0.30
2022-09-01T15:12:57.705Z,0.20
2022-09-01T15:15:28.278Z,0.20
2022-09-01T15:17:55.678Z,0.20
2022-09-01T15:20:41.662Z,0.30
2022-09-01T15:23:08.463Z,0.43
2022-09-01T15:25:35.685Z,0.30
2022-09-01T15:28:02.706Z,0.10
2022-09-01T15:30:29.698Z,0.20
2022-09-01T15:32:56.717Z,0.30
2022-09-01T15:35:23.951Z,0.30
2022-09-01T15:37:51.812Z,0.10
2022-09-01T15:40:20.894Z,0.20
2022-09-01T15:42:50.342Z,0.30
2022-09-01T15:45:20.140Z,0.20
2022-09-01T15:47:50.152Z,0.20
2022-09-01T15:50:22.208Z,0.20
2022-09-01T15:52:54.682Z,0.20
2022-09-01T15:55:40.999Z,0.40
2022-09-01T15:58:12.883Z,0.25
2022-09-01T16:00:40.977Z,0.30
2022-09-01T16:03:13.883Z,0.30
2022-09-01T16:05:43.205Z,0.20
2022-09-01T16:08:12.979Z,0.20
2022-09-01T16:10:44.548Z,0.20
2022-09-01T16:13:11.727Z,0.30
2022-09-01T16:16:01.425Z,0.20
2022-09-01T16:18:41.825Z,0.20
2022-09-01T16:21:22.184Z,0.57
2022-09-01T16:23:50.948Z,0.35
2022-09-01T16:26:20.346Z,0.30
2022-09-01T16:28:53.254Z,0.20
2022-09-01T16:31:30.519Z,0.40
2022-09-01T16:34:05.431Z,0.30
2022-09-01T16:36:44.993Z,0.43
2022-09-01T16:39:16.088Z,0.50
2022-09-01T16:41:52.139Z,0.50
2022-09-01T16:44:38.828Z,0.50
2022-09-01T16:47:35.126Z,0.30
2022-09-01T16:50:11.003Z,0.30
2022-09-01T16:53:05.935Z,0.30
2022-09-01T16:56:07.478Z,0.20
2022-09-01T16:58:53.956Z,0.25
2022-09-01T17:01:24.272Z,0.45
2022-09-01T17:04:16.994Z,0.50
2022-09-01T17:07:03.054Z,0.30
2022-09-01T17:09:44.517Z,0.50
2022-09-01T17:12:37.036Z,0.38
2022-09-01T17:15:14.892Z,0.38
2022-09-01T17:17:47.093Z,0.40
2022-09-01T17:20:19.948Z,0.52
2022-09-01T17:22:52.170Z,0.93
2022-09-01T17:25:35.311Z,0.45
2022-09-01T17:28:10.674Z,0.60
2022-09-01T17:30:47.147Z,0.40
2022-09-01T17:33:29.126Z,0.40
2022-09-01T17:36:24.060Z,0.60
2022-09-01T17:38:54.857Z,0.60
2022-09-01T17:41:34.378Z,0.45
2022-09-01T17:44:12.534Z,0.73
2022-09-01T17:46:46.376Z,0.60
2022-09-01T17:49:47.214Z,0.40
2022-09-01T17:52:39.963Z,0.50
2022-09-01T17:55:22.084Z,0.40
2022-09-01T17:58:02.081Z,0.30
2022-09-01T18:01:09.278Z,1.00
2022-09-01T18:04:11.912Z,0.40
2022-09-01T18:06:49.613Z,0.40
2022-09-01T18:09:18.400Z,0.50
2022-09-01T18:11:51.428Z,0.45
2022-09-01T18:14:22.427Z,0.52
2022-09-01T18:16:49.043Z,0.45
2022-09-01T18:19:26.769Z,0.40
2022-09-01T18:21:56.606Z,0.40
2022-09-01T18:24:54.384Z,0.50
2022-09-01T18:27:24.309Z,1.05
2022-09-01T18:29:53.062Z,0.95
2022-09-01T18:32:32.451Z,0.40
2022-09-01T18:34:59.616Z,0.30
2022-09-01T18:37:58.076Z,0.40
2022-09-01T18:40:34.271Z,0.30
2022-09-01T18:43:16.858Z,0.40
2022-09-01T18:46:19.733Z,0.50
2022-09-01T18:49:08.640Z,0.80
2022-09-01T18:52:08.534Z,0.45
2022-09-01T18:57:28.825Z,0.70
2022-09-01T18:59:59.054Z,0.40
2022-09-01T19:02:43.630Z,0.60
2022-09-01T19:05:35.918Z,0.88
2022-09-01T19:08:40.256Z,0.63
2022-09-01T19:11:36.157Z,0.82
2022-09-01T19:14:12.216Z,0.30
2022-09-01T19:17:14.181Z,0.43
2022-09-01T19:19:44.543Z,0.50
2022-09-01T19:22:26.985Z,0.60
2022-09-01T19:25:27.899Z,0.60
2022-09-01T19:28:12.112Z,0.60
2022-09-01T19:30:48.294Z,0.57
2022-09-01T19:33:18.249Z,1.08
2022-09-01T19:35:51.218Z,0.80
2022-09-01T19:38:23.860Z,0.88
2022-09-01T19:41:15.207Z,0.90
2022-09-01T19:43:43.517Z,0.90
2022-09-01T19:46:13.350Z,1.00
2022-09-01T19:49:00.059Z,0.52
2022-09-01T19:51:34.704Z,1.00
2022-09-01T19:54:27.802Z,0.60
2022-09-01T19:57:20.256Z,0.98
2022-09-01T20:00:13.836Z,0.90
2022-09-01T20:02:53.203Z,0.60
2022-09-01T20:05:27.976Z,1.15
2022-09-01T20:07:58.109Z,1.08
2022-09-01T20:11:07.022Z,0.57
2022-09-01T20:13:39.333Z,0.50
2022-09-01T20:16:23.659Z,0.60
2022-09-01T20:19:00.310Z,1.25
2022-09-01T20:21:29.656Z,0.55
2022-09-01T20:24:04.257Z,0.80
2022-09-01T20:26:49.490Z,0.73
2022-09-01T20:29:32.973Z,0.50
2022-09-01T20:32:03.985Z,0.75
2022-09-01T20:34:48.655Z,0.50
2022-09-01T20:37:21.622Z,1.38
2022-09-01T20:40:27.145Z,0.60
2022-09-01T20:42:54.234Z,0.60
2022-09-01T20:45:25.389Z,0.65
2022-09-01T20:48:04.085Z,0.40
2022-09-01T20:50:45.368Z,1.92
2022-09-01T20:53:42.553Z,0.85
2022-09-01T20:56:31.830Z,0.80
2022-09-01T20:59:25.046Z,0.60
2022-09-01T21:02:22.409Z,0.47
2022-09-01T21:05:21.484Z,0.43
2022-09-01T21:08:10.036Z,0.40
2022-09-01T21:13:34.510Z,0.32
2022-09-01T21:16:18.223Z,0.43
2022-09-01T21:19:10.039Z,0.93
2022-09-01T21:21:47.283Z,0.47
2022-09-01T21:24:14.092Z,1.30
2022-09-01T21:26:49.403Z,0.60
2022-09-01T21:29:31.946Z,0.40
2022-09-01T21:32:01.835Z,0.30
2022-09-01T21:34:30.815Z,0.30
2022-09-01T21:36:57.614Z,0.40
2022-09-01T21:39:24.493Z,0.40
2022-09-01T21:41:51.531Z,0.40
2022-09-01T21:44:18.440Z,0.30
2022-09-01T21:46:45.264Z,0.30
2022-09-01T21:49:14.738Z,0.30
2022-09-01T21:51:42.193Z,0.30
2022-09-01T21:54:11.204Z,0.68
2022-09-01T21:56:40.887Z,0.38
2022-09-01T22:01:42.900Z,0.40
2022-09-01T22:04:10.102Z,0.30
2022-09-01T22:06:38.992Z,0.40
2022-09-01T22:09:20.548Z,0.30
2022-09-01T22:11:49.808Z,0.40
2022-09-01T22:14:19.878Z,0.70
2022-09-01T22:16:50.048Z,0.25
2022-09-01T22:19:20.311Z,0.20
2022-09-01T22:21:47.196Z,0.50
2022-09-01T22:24:19.646Z,0.25
2022-09-01T22:26:49.292Z,0.28
2022-09-01T22:29:23.504Z,0.50
2022-09-01T22:31:50.337Z,0.30
2022-09-01T22:39:18.643Z,0.20
2022-09-01T22:41:47.325Z,0.35
2022-09-01T22:44:14.255Z,0.35
2022-09-01T22:46:40.995Z,0.30
2022-09-01T22:49:08.302Z,0.30
2022-09-01T22:51:37.242Z,0.30
2022-09-01T22:54:04.249Z,0.20
2022-09-01T22:56:33.591Z,0.40
2022-09-01T22:59:04.513Z,0.30
2022-09-01T23:01:37.881Z,0.32
2022-09-01T23:04:06.479Z,0.20
2022-09-01T23:06:34.990Z,0.40
2022-09-01T23:09:02.730Z,0.30
2022-09-01T23:11:30.025Z,0.30
2022-09-01T23:13:57.347Z,1.15
2022-09-01T23:16:27.654Z,0.47
2022-09-01T23:18:58.125Z,0.30
2022-09-01T23:21:28.773Z,0.30
2022-09-01T23:23:58.752Z,0.30
2022-09-01T23:26:29.762Z,0.38
2022-09-01T23:28:56.886Z,0.30
2022-09-01T23:31:29.507Z,0.20
2022-09-01T23:34:00.118Z,0.30
2022-09-01T23:36:30.624Z,0.30
2022-09-01T23:38:58.158Z,0.30
2022-09-01T23:41:31.295Z,0.25
2022-09-01T23:44:01.418Z,0.30
2022-09-01T23:46:33.385Z,0.40
2022-09-01T23:49:04.107Z,0.60
2022-09-01T23:51:31.115Z,0.20
2022-09-01T23:54:00.675Z,0.30
2022-09-01T23:56:28.833Z,0.20
2022-09-01T23:58:55.626Z,0.35
